Time;durP1;ratioP1;P1;durP2;ratioP2;P2;SDS_P1;SDS_P2;PMS_P1;PMS_P2;Temp;Humidity;BMP_temperature;BMP_pressure;BME280_temperature;BME280_humidity;BME280_pressure;Samples;Min_cycle;Max_cycle;Signal;HPM_P1;HPM_P2
2022/07/24 00:01:51;;;;;;;14.50;7.50;;;;;;;17.70;75.78;100574.10;105799;1270;22557;-50
2022/07/24 00:04:23;;;;;;;15.30;7.60;;;;;;;17.67;75.85;100575.39;106130;1270;22596;-52
2022/07/24 00:06:55;;;;;;;14.30;7.50;;;;;;;17.65;76.06;100575.70;105991;1270;22602;-53
2022/07/24 00:09:27;;;;;;;15.70;8.00;;;;;;;17.62;76.28;100576.34;105970;1270;26637;-51
2022/07/24 00:11:59;;;;;;;15.50;6.70;;;;;;;17.58;76.28;100576.00;105958;1270;25561;-53
2022/07/24 00:14:31;;;;;;;15.20;7.60;;;;;;;17.54;76.26;100574.58;105947;1270;22691;-55
2022/07/24 00:17:02;;;;;;;17.20;6.80;;;;;;;17.51;76.36;100576.94;106079;1271;24254;-55
2022/07/24 00:19:33;;;;;;;14.50;7.30;;;;;;;17.47;76.30;100576.56;106038;1270;22538;-53
2022/07/24 00:22:05;;;;;;;13.30;6.60;;;;;;;17.43;76.35;100572.54;105956;1270;22528;-50
2022/07/24 00:24:36;;;;;;;15.10;5.60;;;;;;;17.37;76.41;100570.97;105877;1270;22554;-51
2022/07/24 00:27:08;;;;;;;12.20;6.20;;;;;;;17.31;76.36;100571.51;106045;1270;22548;-54
2022/07/24 00:29:39;;;;;;;11.90;5.80;;;;;;;17.25;76.45;100574.58;105868;1270;317484;-50
2022/07/24 00:32:10;;;;;;;13.20;6.30;;;;;;;17.23;76.56;100576.55;106220;1270;25427;-55
2022/07/24 00:34:42;;;;;;;12.50;5.90;;;;;;;17.21;76.64;100578.50;105975;1270;25533;-51
2022/07/24 00:37:13;;;;;;;12.50;6.40;;;;;;;17.19;76.63;100578.16;105996;1270;26258;-51
2022/07/24 00:39:47;;;;;;;12.50;5.60;;;;;;;17.16;76.88;100571.13;106253;1270;26556;-54
2022/07/24 00:42:18;;;;;;;15.00;6.40;;;;;;;17.15;77.00;100572.02;105986;1270;22525;-54
2022/07/24 00:44:55;;;;;;;13.00;6.30;;;;;;;17.13;77.05;100575.05;105971;1270;22525;-50
2022/07/24 00:47:27;;;;;;;15.80;7.60;;;;;;;17.11;77.29;100576.01;106113;1270;22487;-53
2022/07/24 00:49:59;;;;;;;13.40;6.60;;;;;;;17.07;77.43;100576.68;106038;1270;22551;-52
2022/07/24 00:52:31;;;;;;;13.60;6.50;;;;;;;17.05;77.43;100573.26;106065;1270;22552;-54
2022/07/24 00:55:02;;;;;;;14.00;6.60;;;;;;;17.03;77.46;100572.44;106066;1270;24366;-54
2022/07/24 00:57:34;;;;;;;14.00;6.40;;;;;;;16.99;77.49;100572.91;106087;1270;22720;-51
2022/07/24 01:00:09;;;;;;;17.40;7.50;;;;;;;16.96;77.70;100575.11;106138;1270;23375;-53
2022/07/24 01:02:44;;;;;;;13.50;5.90;;;;;;;16.93;77.67;100570.91;106066;1270;23080;-52
2022/07/24 01:05:16;;;;;;;13.70;6.60;;;;;;;16.91;77.70;100570.20;106049;1270;22556;-53
2022/07/24 01:07:47;;;;;;;16.10;7.20;;;;;;;16.88;77.61;100569.27;105849;1270;25324;-53
2022/07/24 01:10:20;;;;;;;12.50;6.20;;;;;;;16.86;77.77;100569.28;105968;1270;25713;-53
2022/07/24 01:12:51;;;;;;;16.30;7.80;;;;;;;16.84;77.75;100571.08;105898;1270;22528;-50
2022/07/24 01:15:23;;;;;;;14.40;7.10;;;;;;;16.81;77.99;100574.31;106072;1270;24252;-50
2022/07/24 01:17:55;;;;;;;18.90;9.40;;;;;;;16.79;78.16;100575.65;106079;1270;24647;-52
2022/07/24 01:20:26;;;;;;;21.20;9.60;;;;;;;16.77;78.30;100571.25;105987;1270;22605;-50
2022/07/24 01:22:57;;;;;;;15.40;7.70;;;;;;;16.76;78.54;100567.40;106122;1270;23227;-51
2022/07/24 01:25:29;;;;;;;19.00;9.50;;;;;;;16.73;78.54;100566.84;106027;1270;22644;-50
2022/07/24 01:28:00;;;;;;;20.00;7.70;;;;;;;16.72;78.70;100566.33;106000;1270;25601;-52
2022/07/24 01:30:32;;;;;;;17.50;8.90;;;;;;;16.70;78.81;100565.41;106096;1270;22556;-50
2022/07/24 01:33:03;;;;;;;17.40;9.10;;;;;;;16.69;78.74;100568.99;105769;1270;22533;-50
2022/07/24 01:35:35;;;;;;;18.90;9.40;;;;;;;16.68;79.04;100568.59;106001;1270;24309;-50
2022/07/24 01:38:06;;;;;;;18.60;10.60;;;;;;;16.68;79.32;100567.62;106066;1270;24243;-53
2022/07/24 01:40:38;;;;;;;19.10;10.10;;;;;;;16.67;79.44;100564.48;106381;1270;24342;-52
2022/07/24 01:43:09;;;;;;;20.10;11.00;;;;;;;16.65;79.60;100566.64;105944;1270;24214;-50
2022/07/24 01:45:41;;;;;;;18.50;9.90;;;;;;;16.65;79.68;100567.15;105969;1270;22699;-54
2022/07/24 01:48:12;;;;;;;18.30;9.90;;;;;;;16.63;79.68;100567.77;105964;1270;25308;-51
2022/07/24 01:50:43;;;;;;;21.40;11.90;;;;;;;16.62;79.79;100568.27;106347;1270;22525;-53
2022/07/24 01:53:16;;;;;;;20.30;10.90;;;;;;;16.60;79.73;100570.23;106049;1270;22525;-50
2022/07/24 01:55:50;;;;;;;21.40;10.80;;;;;;;16.58;80.01;100568.29;105936;1271;22638;-53
2022/07/24 01:58:21;;;;;;;24.00;12.50;;;;;;;16.57;79.99;100571.05;106028;1270;22560;-50
2022/07/24 02:00:55;;;;;;;24.30;11.50;;;;;;;16.55;80.09;100568.12;105947;1271;22522;-50
2022/07/24 02:03:27;;;;;;;21.60;11.60;;;;;;;16.54;80.09;100567.41;106044;1270;24302;-50
2022/07/24 02:05:58;;;;;;;21.00;11.40;;;;;;;16.51;79.98;100560.70;106006;1270;25358;-50
2022/07/24 02:08:30;;;;;;;17.80;10.00;;;;;;;16.48;80.12;100557.75;106039;1270;23043;-50
2022/07/24 02:11:01;;;;;;;21.00;11.60;;;;;;;16.44;79.99;100563.09;106025;1270;22523;-51
2022/07/24 02:13:33;;;;;;;21.10;12.00;;;;;;;16.42;80.24;100566.77;106075;1270;22564;-50
2022/07/24 02:16:05;;;;;;;21.40;11.60;;;;;;;16.38;80.18;100565.99;106079;1270;25301;-50
2022/07/24 02:18:36;;;;;;;20.50;11.00;;;;;;;16.36;80.13;100563.38;106029;1270;22564;-53
2022/07/24 02:21:08;;;;;;;22.20;12.40;;;;;;;16.31;80.18;100566.91;106077;1271;26632;-51
2022/07/24 02:23:42;;;;;;;20.10;11.20;;;;;;;16.26;80.32;100561.48;106043;1270;25300;-49
2022/07/24 02:26:15;;;;;;;19.80;10.90;;;;;;;16.21;80.49;100555.64;106035;1270;24288;-51
2022/07/24 02:28:47;;;;;;;20.90;11.30;;;;;;;16.16;80.20;100561.36;106100;1270;24576;-51
2022/07/24 02:31:19;;;;;;;20.10;10.60;;;;;;;16.12;80.25;100565.55;106062;1270;22528;-49
2022/07/24 02:33:50;;;;;;;19.00;10.30;;;;;;;16.08;80.29;100565.19;105860;1270;22536;-54
2022/07/24 02:36:23;;;;;;;18.80;10.60;;;;;;;16.05;80.24;100564.52;106144;1271;22626;-50
2022/07/24 02:38:54;;;;;;;22.00;11.30;;;;;;;16.01;80.24;100564.46;106071;1271;22652;-50
2022/07/24 02:41:26;;;;;;;18.90;10.50;;;;;;;15.97;80.11;100568.95;106050;1271;25361;-50
2022/07/24 02:43:58;;;;;;;19.40;10.50;;;;;;;15.94;80.39;100572.38;106128;1270;25307;-52
2022/07/24 02:46:30;;;;;;;19.50;11.00;;;;;;;15.91;80.66;100569.00;106247;1270;25288;-49
2022/07/24 02:49:02;;;;;;;20.40;10.30;;;;;;;15.89;80.48;100565.39;106121;1270;24007;-51
2022/07/24 02:51:33;;;;;;;19.80;10.60;;;;;;;15.87;80.49;100570.88;106124;1270;25626;-50
2022/07/24 02:54:04;;;;;;;20.20;12.10;;;;;;;15.84;80.56;100578.85;106040;1270;22885;-53
2022/07/24 02:56:35;;;;;;;19.00;10.80;;;;;;;15.82;80.73;100577.16;106058;1270;25532;-50
2022/07/24 02:59:07;;;;;;;19.30;10.30;;;;;;;15.80;80.71;100576.84;106067;1270;22559;-51
2022/07/24 03:01:38;;;;;;;19.40;10.20;;;;;;;15.77;80.66;100580.06;105972;1270;22567;-49
2022/07/24 03:04:09;;;;;;;22.20;12.00;;;;;;;15.75;80.78;100585.73;106035;1270;25237;-51
2022/07/24 03:06:41;;;;;;;19.20;11.30;;;;;;;15.74;80.89;100587.47;106137;1270;24335;-49
2022/07/24 03:09:13;;;;;;;22.90;11.40;;;;;;;15.71;80.64;100588.69;106004;1271;22605;-49
2022/07/24 03:11:44;;;;;;;21.90;11.50;;;;;;;15.67;80.61;100593.95;106062;1270;24524;-51
2022/07/24 03:14:16;;;;;;;23.10;12.00;;;;;;;15.63;80.67;100595.27;106039;1270;22542;-53
2022/07/24 03:16:48;;;;;;;19.80;11.40;;;;;;;15.59;80.84;100599.38;105902;1271;22553;-53
2022/07/24 03:19:19;;;;;;;19.60;10.80;;;;;;;15.55;80.57;100594.16;106075;1271;25358;-52
2022/07/24 03:21:54;;;;;;;20.50;11.00;;;;;;;15.52;80.59;100600.79;105941;1271;22560;-53
2022/07/24 03:24:26;;;;;;;18.00;10.10;;;;;;;15.49;80.74;100604.35;106149;1270;22567;-55
2022/07/24 03:26:58;;;;;;;19.20;10.40;;;;;;;15.45;80.65;100600.55;106080;1271;22544;-54
2022/07/24 03:29:30;;;;;;;18.80;10.10;;;;;;;15.41;80.81;100600.76;106054;1271;25229;-50
2022/07/24 03:32:01;;;;;;;20.00;10.70;;;;;;;15.39;80.74;100606.27;106050;1271;25340;-52
2022/07/24 03:34:34;;;;;;;20.20;10.60;;;;;;;15.37;80.63;100609.84;106441;1259;22505;-61
2022/07/24 03:37:06;;;;;;;19.10;11.00;;;;;;;15.34;80.69;100608.69;106206;1270;22550;-62
2022/07/24 03:39:37;;;;;;;19.20;10.50;;;;;;;15.32;80.88;100611.14;106188;1270;25315;-63
2022/07/24 03:42:09;;;;;;;18.40;10.00;;;;;;;15.31;80.96;100618.35;106135;1270;24171;-62
2022/07/24 03:44:41;;;;;;;16.10;8.50;;;;;;;15.30;80.96;100619.47;106064;1270;22823;-62
2022/07/24 03:47:12;;;;;;;14.10;6.80;;;;;;;15.29;81.25;100621.40;105976;1270;22538;-62
2022/07/24 03:49:44;;;;;;;9.30;4.10;;;;;;;15.24;81.40;100622.29;106147;1270;26664;-63
2022/07/24 03:52:15;;;;;;;10.10;4.10;;;;;;;15.22;81.60;100624.53;106007;1270;22589;-62
2022/07/24 03:54:46;;;;;;;7.70;3.70;;;;;;;15.21;81.81;100629.59;106056;1270;22695;-63
2022/07/24 03:57:18;;;;;;;8.30;3.00;;;;;;;15.20;81.74;100628.81;106129;1270;22564;-61
2022/07/24 03:59:50;;;;;;;7.60;3.30;;;;;;;15.20;81.90;100629.48;106204;1270;22539;-62
2022/07/24 04:02:21;;;;;;;11.10;4.60;;;;;;;15.22;81.80;100632.00;106064;1270;25366;-63
2022/07/24 04:04:53;;;;;;;12.90;6.30;;;;;;;15.23;81.99;100633.84;106105;1270;24228;-61
2022/07/24 04:07:24;;;;;;;14.60;6.60;;;;;;;15.25;82.52;100628.13;105951;1270;25273;-62
2022/07/24 04:09:56;;;;;;;21.10;8.90;;;;;;;15.27;82.52;100631.20;106073;1270;24445;-63
2022/07/24 04:12:27;;;;;;;19.00;8.90;;;;;;;15.30;83.11;100626.93;106028;1270;22677;-62
2022/07/24 04:14:58;;;;;;;16.60;9.10;;;;;;;15.34;83.31;100627.77;106108;1270;22558;-61
2022/07/24 04:17:30;;;;;;;15.30;8.10;;;;;;;15.38;83.17;100625.75;105962;1270;25322;-62
2022/07/24 04:20:01;;;;;;;18.60;8.60;;;;;;;15.43;83.33;100629.53;106027;1270;22540;-62
2022/07/24 04:22:33;;;;;;;20.10;10.50;;;;;;;15.46;83.19;100626.14;106303;1270;23649;-62
2022/07/24 04:25:05;;;;;;;19.10;10.10;;;;;;;15.49;83.25;100629.57;106005;1271;22528;-62
2022/07/24 04:27:36;;;;;;;21.00;9.90;;;;;;;15.53;83.61;100628.52;106035;1270;24261;-62
2022/07/24 04:30:11;;;;;;;20.50;10.10;;;;;;;15.58;83.58;100629.36;106036;1270;26652;-62
2022/07/24 04:32:42;;;;;;;20.00;10.90;;;;;;;15.64;83.69;100628.98;106072;1270;22548;-62
2022/07/24 04:35:14;;;;;;;21.50;11.20;;;;;;;15.69;83.56;100634.02;106199;1270;22835;-63
2022/07/24 04:37:45;;;;;;;18.80;9.20;;;;;;;15.75;83.79;100630.15;106153;1270;22582;-62
2022/07/24 04:40:19;;;;;;;19.50;10.20;;;;;;;15.80;83.91;100631.72;106147;1270;22631;-61
2022/07/24 04:42:51;;;;;;;22.20;10.20;;;;;;;15.86;83.97;100632.70;106106;1271;24325;-63
2022/07/24 04:45:23;;;;;;;17.60;9.90;;;;;;;15.92;84.09;100638.92;106068;1270;22684;-62
2022/07/24 04:47:56;;;;;;;19.90;10.40;;;;;;;15.99;84.08;100644.48;106190;1270;25256;-62
2022/07/24 04:50:28;;;;;;;20.80;10.80;;;;;;;16.06;84.22;100642.10;106184;1270;22547;-63
2022/07/24 04:52:59;;;;;;;18.70;10.30;;;;;;;16.12;84.25;100641.60;106091;1270;22538;-61
2022/07/24 04:55:30;;;;;;;18.10;9.60;;;;;;;16.17;84.27;100641.52;106178;1271;24255;-62
2022/07/24 04:58:02;;;;;;;19.50;10.50;;;;;;;16.26;84.45;100647.73;105964;1270;22542;-62
2022/07/24 05:00:34;;;;;;;19.70;9.60;;;;;;;16.34;84.52;100655.95;105989;1271;23335;-63
2022/07/24 05:03:08;;;;;;;17.70;9.60;;;;;;;16.40;84.44;100659.50;106266;1270;24272;-63
2022/07/24 05:05:39;;;;;;;16.40;8.30;;;;;;;16.48;84.43;100662.03;106104;1271;25358;-61
2022/07/24 05:08:11;;;;;;;15.30;7.40;;;;;;;16.55;83.98;100661.60;106023;1271;22647;-62
2022/07/24 05:10:42;;;;;;;15.00;8.00;;;;;;;16.65;83.90;100665.09;106059;1271;24306;-62
2022/07/24 05:13:13;;;;;;;20.40;8.00;;;;;;;16.72;83.93;100670.14;106224;1270;25371;-62
2022/07/24 05:15:45;;;;;;;15.00;7.40;;;;;;;16.78;83.64;100672.48;106057;1270;22537;-63
2022/07/24 05:18:17;;;;;;;16.50;5.90;;;;;;;16.85;83.78;100676.55;106280;1270;25342;-63
2022/07/24 05:20:48;;;;;;;16.30;6.90;;;;;;;16.89;83.07;100672.35;106247;1270;22545;-62
2022/07/24 05:23:20;;;;;;;14.50;5.20;;;;;;;16.95;82.65;100677.27;106279;1270;25358;-63
2022/07/24 05:25:51;;;;;;;13.40;5.20;;;;;;;17.00;82.36;100679.94;106185;1270;23180;-62
2022/07/24 05:28:23;;;;;;;10.80;4.50;;;;;;;17.06;82.23;100684.34;106076;1270;25336;-63
2022/07/24 05:30:54;;;;;;;12.90;5.20;;;;;;;17.13;82.12;100682.85;106143;1271;25356;-62
2022/07/24 05:33:25;;;;;;;12.70;4.70;;;;;;;17.21;81.88;100686.48;106144;1270;22544;-64
2022/07/24 05:35:57;;;;;;;13.10;4.00;;;;;;;17.30;81.91;100691.00;106118;1271;24001;-62
2022/07/24 05:38:28;;;;;;;14.30;3.90;;;;;;;17.38;80.83;100693.75;106165;1270;22563;-63
2022/07/24 05:40:59;;;;;;;12.10;4.50;;;;;;;17.45;80.47;100693.38;106029;1271;22558;-63
2022/07/24 05:43:31;;;;;;;11.60;4.10;;;;;;;17.52;80.49;100693.55;106267;1271;25429;-62
2022/07/24 05:46:03;;;;;;;11.70;3.60;;;;;;;17.58;79.93;100692.10;106213;1270;25373;-62
2022/07/24 05:48:34;;;;;;;11.80;2.70;;;;;;;17.66;78.99;100697.38;106184;1270;22554;-63
2022/07/24 05:51:06;;;;;;;10.50;3.40;;;;;;;17.71;78.75;100697.66;105971;1270;25334;-62
2022/07/24 05:53:37;;;;;;;7.90;2.20;;;;;;;17.76;78.06;100697.23;106065;1270;24286;-62
2022/07/24 05:56:10;;;;;;;9.50;2.60;;;;;;;17.79;78.29;100696.98;106084;1270;22549;-62
2022/07/24 05:58:42;;;;;;;7.50;2.20;;;;;;;17.87;77.76;100699.62;106306;1270;25378;-63
2022/07/24 06:01:14;;;;;;;10.70;3.00;;;;;;;17.92;77.34;100702.73;106133;1270;24389;-63
2022/07/24 06:03:45;;;;;;;9.00;3.00;;;;;;;17.94;76.77;100704.05;106034;1271;22541;-63
2022/07/24 06:06:17;;;;;;;11.90;2.40;;;;;;;17.95;76.36;100702.48;106022;1270;22533;-63
2022/07/24 06:08:48;;;;;;;9.30;2.80;;;;;;;17.96;76.31;100699.69;106075;1270;25263;-62
2022/07/24 06:11:20;;;;;;;8.10;2.60;;;;;;;17.99;76.47;100708.81;106206;1270;22596;-62
2022/07/24 06:13:51;;;;;;;8.60;2.60;;;;;;;18.07;77.20;100709.46;106173;1271;25353;-64
2022/07/24 06:16:23;;;;;;;10.80;2.80;;;;;;;18.17;76.63;100719.39;106102;1271;24267;-63
2022/07/24 06:18:54;;;;;;;11.90;3.00;;;;;;;18.21;75.91;100714.54;106061;1270;22528;-62
2022/07/24 06:21:26;;;;;;;8.20;2.70;;;;;;;18.24;75.90;100712.62;106042;1271;22547;-63
2022/07/24 06:23:57;;;;;;;8.50;3.10;;;;;;;18.28;75.25;100717.42;106031;1271;23311;-63
2022/07/24 06:26:28;;;;;;;7.50;2.20;;;;;;;18.33;75.45;100718.67;106040;1271;22540;-63
2022/07/24 06:29:01;;;;;;;10.00;2.60;;;;;;;18.35;75.23;100719.75;106064;1271;22555;-62
2022/07/24 06:31:32;;;;;;;6.60;2.10;;;;;;;18.40;74.78;100723.85;106232;1271;22617;-63
2022/07/24 06:34:04;;;;;;;11.00;3.30;;;;;;;18.44;74.64;100722.86;106045;1271;25430;-62
2022/07/24 06:36:35;;;;;;;9.50;2.80;;;;;;;18.47;74.39;100726.27;106011;1271;22528;-63
2022/07/24 06:39:07;;;;;;;11.30;3.00;;;;;;;18.50;74.61;100728.55;106090;1271;22541;-63
2022/07/24 06:41:38;;;;;;;8.40;2.60;;;;;;;18.55;74.49;100724.76;106114;1271;24216;-63
2022/07/24 06:44:10;;;;;;;9.30;2.70;;;;;;;18.61;74.43;100720.36;106048;1271;22993;-63
2022/07/24 06:46:41;;;;;;;9.90;2.70;;;;;;;18.69;73.75;100721.65;106007;1271;22690;-63
2022/07/24 06:49:14;;;;;;;7.60;2.40;;;;;;;18.74;73.38;100724.39;106059;1271;22554;-63
2022/07/24 06:51:47;;;;;;;15.40;2.60;;;;;;;18.75;72.93;100726.60;106056;1271;22530;-63
2022/07/24 06:54:18;;;;;;;9.00;3.20;;;;;;;18.78;73.19;100721.28;106030;1271;24399;-62
2022/07/24 06:56:50;;;;;;;6.40;2.20;;;;;;;18.86;72.71;100722.67;105970;1271;22593;-64
2022/07/24 06:59:21;;;;;;;9.60;2.00;;;;;;;18.94;72.99;100721.02;105981;1271;25255;-63
2022/07/24 07:01:53;;;;;;;9.80;3.10;;;;;;;19.06;72.90;100722.41;105876;1271;22548;-63
2022/07/24 07:04:24;;;;;;;5.80;2.20;;;;;;;19.17;72.39;100723.78;105964;1271;22538;-63
2022/07/24 07:06:56;;;;;;;8.10;2.30;;;;;;;19.21;71.17;100720.75;106034;1271;22588;-63
2022/07/24 07:09:28;;;;;;;7.00;1.60;;;;;;;19.24;70.71;100717.11;106015;1271;22553;-63
2022/07/24 07:11:59;;;;;;;5.20;1.20;;;;;;;19.28;70.07;100718.31;105940;1271;22525;-62
2022/07/24 07:14:31;;;;;;;7.60;1.30;;;;;;;19.32;69.77;100717.52;105987;1270;24369;-62
2022/07/24 07:17:02;;;;;;;4.40;1.40;;;;;;;19.40;69.43;100718.23;105905;1271;22634;-62
2022/07/24 07:19:34;;;;;;;4.90;1.20;;;;;;;19.47;68.61;100718.13;106007;1271;23988;-63
2022/07/24 07:22:05;;;;;;;6.00;1.10;;;;;;;19.52;68.25;100719.20;105893;1271;23032;-62
2022/07/24 07:24:37;;;;;;;3.00;1.10;;;;;;;19.57;67.52;100717.82;105953;1271;22547;-64
2022/07/24 07:27:08;;;;;;;6.40;1.20;;;;;;;19.58;66.19;100722.18;105997;1271;22615;-64
2022/07/24 07:29:40;;;;;;;5.50;1.10;;;;;;;19.60;66.79;100719.29;106011;1271;25248;-63
2022/07/24 07:32:11;;;;;;;5.70;1.00;;;;;;;19.68;67.06;100723.67;105921;1271;24306;-63
2022/07/24 07:34:43;;;;;;;4.90;1.00;;;;;;;19.79;66.92;100720.93;106103;1271;25500;-63
2022/07/24 07:37:15;;;;;;;3.00;0.80;;;;;;;19.83;64.74;100724.34;105987;1271;22592;-63
2022/07/24 07:39:46;;;;;;;5.10;0.80;;;;;;;19.84;64.05;100717.63;105959;1271;23964;-63
2022/07/24 07:42:18;;;;;;;4.60;0.80;;;;;;;19.92;64.73;100716.04;105812;1271;22663;-63
2022/07/24 07:44:50;;;;;;;4.10;0.60;;;;;;;19.98;62.15;100718.29;105886;1271;22717;-63
2022/07/24 07:47:22;;;;;;;3.60;0.60;;;;;;;19.98;61.48;100720.71;106117;1271;24263;-63
2022/07/24 07:49:53;;;;;;;2.40;0.60;;;;;;;19.99;61.03;100726.31;105932;1271;25362;-62
2022/07/24 07:52:24;;;;;;;3.40;0.50;;;;;;;20.01;59.86;100730.72;105894;1271;24312;-63
2022/07/24 07:54:57;;;;;;;2.00;0.50;;;;;;;20.04;60.25;100732.45;105912;1271;24373;-63
2022/07/24 07:57:29;;;;;;;1.80;0.50;;;;;;;20.11;59.10;100731.54;105831;1271;24309;-63
2022/07/24 08:00:00;;;;;;;2.20;0.50;;;;;;;20.20;58.93;100732.94;105820;1271;22561;-63
2022/07/24 08:02:32;;;;;;;3.40;0.70;;;;;;;20.25;59.33;100729.23;106031;1271;24290;-63
2022/07/24 08:05:04;;;;;;;2.20;0.60;;;;;;;20.35;58.82;100737.98;105934;1271;22521;-64
2022/07/24 08:07:36;;;;;;;1.80;0.50;;;;;;;20.39;57.09;100732.40;106026;1271;25645;-63
2022/07/24 08:10:09;;;;;;;3.70;0.60;;;;;;;20.39;57.01;100732.30;106014;1271;25365;-63
2022/07/24 08:12:41;;;;;;;6.10;0.60;;;;;;;20.42;57.14;100736.73;106266;1271;22544;-64
2022/07/24 08:15:14;;;;;;;3.90;0.50;;;;;;;20.48;56.23;100740.27;106159;1271;25611;-64
2022/07/24 08:17:45;;;;;;;2.20;0.60;;;;;;;20.51;56.18;100735.33;106192;1271;25028;-63
2022/07/24 08:20:17;;;;;;;1.20;0.50;;;;;;;20.52;56.25;100731.40;106008;1271;25417;-63
2022/07/24 08:22:48;;;;;;;2.60;0.60;;;;;;;20.60;55.87;100729.42;106383;1271;22567;-63
2022/07/24 08:25:22;;;;;;;1.60;0.50;;;;;;;20.66;55.54;100735.98;106117;1271;22715;-62
2022/07/24 08:27:53;;;;;;;3.60;0.80;;;;;;;20.70;55.28;100731.45;105962;1270;22547;-64
2022/07/24 08:30:26;;;;;;;2.10;0.50;;;;;;;20.72;55.68;100727.23;105915;1271;22552;-64
2022/07/24 08:32:58;;;;;;;4.10;0.50;;;;;;;20.79;55.90;100724.87;105905;1271;22531;-63
2022/07/24 08:35:30;;;;;;;2.80;0.70;;;;;;;20.85;54.63;100736.34;105853;1271;22539;-63
2022/07/24 08:38:02;;;;;;;6.60;0.80;;;;;;;20.84;54.52;100731.59;105988;1271;25249;-64
2022/07/24 08:40:38;;;;;;;3.20;0.70;;;;;;;20.83;54.59;100728.16;106036;1271;23936;-63
2022/07/24 08:43:10;;;;;;;3.80;0.80;;;;;;;20.86;54.41;100726.83;105881;1270;22731;-64
2022/07/24 08:45:43;;;;;;;2.00;0.50;;;;;;;20.88;54.52;100726.02;105864;1271;25580;-63
2022/07/24 08:48:17;;;;;;;3.20;0.60;;;;;;;20.90;53.58;100724.55;105856;1271;22544;-63
2022/07/24 08:50:49;;;;;;;3.20;0.70;;;;;;;20.98;53.68;100726.73;105751;1271;22616;-64
2022/07/24 08:53:23;;;;;;;5.40;0.90;;;;;;;21.04;52.83;100721.20;106011;1271;22528;-63
2022/07/24 08:55:55;;;;;;;3.00;0.60;;;;;;;21.05;52.16;100722.98;106053;1271;22542;-63
2022/07/24 08:58:26;;;;;;;4.00;0.80;;;;;;;21.05;52.14;100727.39;105902;1271;22553;-64
2022/07/24 09:00:59;;;;;;;1.80;0.50;;;;;;;21.08;51.91;100729.24;106024;1270;26026;-63
2022/07/24 09:03:38;;;;;;;4.50;0.90;;;;;;;21.08;52.25;100724.17;105882;1271;24282;-64
2022/07/24 09:06:12;;;;;;;4.00;0.60;;;;;;;21.12;52.65;100724.02;105877;1270;22554;-63
2022/07/24 09:08:44;;;;;;;3.40;1.00;;;;;;;21.20;52.53;100729.77;106026;1270;26366;-63
2022/07/24 09:11:20;;;;;;;4.50;0.50;;;;;;;21.31;52.14;100729.42;105902;1271;22532;-64
2022/07/24 09:16:42;;;;;;;2.40;0.60;;;;;;;21.53;51.47;100730.21;105817;1271;22556;-63
2022/07/24 09:19:16;;;;;;;3.50;0.60;;;;;;;21.61;51.29;100733.54;105940;1271;22555;-63
2022/07/24 09:21:49;;;;;;;5.60;0.80;;;;;;;21.71;50.67;100732.33;105973;1271;24386;-64
2022/07/24 09:24:23;;;;;;;2.10;0.60;;;;;;;21.79;50.38;100731.98;105870;1270;22596;-63
2022/07/24 09:26:57;;;;;;;4.30;1.00;;;;;;;21.81;49.70;100727.96;105887;1270;22606;-63
2022/07/24 09:29:29;;;;;;;2.80;0.40;;;;;;;21.87;49.02;100735.63;105969;1270;22593;-64
2022/07/24 09:32:03;;;;;;;3.10;0.60;;;;;;;21.90;49.03;100732.92;105846;1271;22759;-62
2022/07/24 09:34:41;;;;;;;2.50;0.50;;;;;;;21.94;48.36;100735.48;105969;1270;24275;-64
2022/07/24 09:37:13;;;;;;;3.10;0.80;;;;;;;21.94;48.34;100731.70;106456;1257;22684;-50
2022/07/24 09:39:46;;;;;;;4.50;0.80;;;;;;;21.98;48.42;100732.75;106162;1271;24338;-51
2022/07/24 09:42:30;;;;;;;4.70;0.70;;;;;;;22.02;48.03;100725.59;105982;1271;22531;-51
2022/07/24 09:45:02;;;;;;;2.40;0.50;;;;;;;22.00;47.76;100727.39;105924;1271;23321;-52
2022/07/24 09:47:37;;;;;;;2.30;0.40;;;;;;;22.04;47.62;100726.91;106037;1271;22617;-54
2022/07/24 09:50:26;;;;;;;2.30;0.40;;;;;;;22.06;47.04;100727.59;106138;1270;22555;-53
2022/07/24 09:52:59;;;;;;;2.40;0.50;;;;;;;22.07;47.13;100735.11;106032;1269;22635;-55
2022/07/24 09:55:33;;;;;;;5.70;0.70;;;;;;;22.09;47.38;100729.52;106188;1271;24401;-51
2022/07/24 09:58:17;;;;;;;1.60;0.50;;;;;;;22.18;47.88;100725.08;106016;1271;22556;-50
2022/07/24 10:00:50;;;;;;;2.60;0.40;;;;;;;22.27;46.77;100739.42;105973;1270;24283;-52
2022/07/24 10:03:26;;;;;;;1.80;0.40;;;;;;;22.33;45.82;100737.89;106076;1271;22598;-52
2022/07/24 10:06:00;;;;;;;1.70;0.40;;;;;;;22.36;45.54;100733.58;106140;1271;24335;-57
2022/07/24 10:08:34;;;;;;;1.90;0.30;;;;;;;22.42;45.74;100730.70;106034;1271;24352;-51
2022/07/24 10:11:07;;;;;;;1.10;0.30;;;;;;;22.52;45.75;100734.98;106169;1271;25443;-52
2022/07/24 10:13:40;;;;;;;2.00;0.40;;;;;;;22.61;45.20;100724.46;106120;1271;24390;-50
2022/07/24 10:16:27;;;;;;;1.10;0.30;;;;;;;22.67;44.94;100725.95;106115;1271;24298;-49
2022/07/24 10:18:59;;;;;;;1.20;0.20;;;;;;;22.73;44.27;100725.13;105994;1271;22805;-53
2022/07/24 10:21:32;;;;;;;1.90;0.40;;;;;;;22.79;43.14;100733.13;106048;1271;22564;-53
2022/07/24 10:24:30;;;;;;;2.30;0.30;;;;;;;22.76;42.94;100727.66;106110;1271;24240;-52
2022/07/24 10:27:05;;;;;;;2.40;0.50;;;;;;;22.77;41.99;100723.16;105882;1271;22548;-53
2022/07/24 10:29:38;;;;;;;2.90;0.40;;;;;;;22.75;42.92;100715.96;106143;1271;26670;-54
2022/07/24 10:32:13;;;;;;;3.90;0.40;;;;;;;22.80;42.57;100720.11;106092;1271;23037;-52
2022/07/24 10:34:52;;;;;;;1.10;0.30;;;;;;;22.83;42.34;100715.83;106274;1271;22982;-55
2022/07/24 10:37:32;;;;;;;0.60;0.20;;;;;;;22.90;41.96;100714.80;106035;1270;22558;-51
2022/07/24 10:40:14;;;;;;;0.70;0.20;;;;;;;22.98;41.74;100716.83;106039;1269;22544;-52
2022/07/24 10:43:16;;;;;;;2.10;0.40;;;;;;;23.00;41.80;100712.63;106072;1270;22594;-54
2022/07/24 10:46:09;;;;;;;2.10;0.30;;;;;;;23.02;41.70;100708.96;106038;1271;23185;-54
2022/07/24 10:48:41;;;;;;;1.10;0.30;;;;;;;23.10;41.87;100709.08;105964;1271;24212;-50
2022/07/24 10:51:15;;;;;;;2.40;0.30;;;;;;;23.20;41.91;100705.27;106126;1271;22606;-52
2022/07/24 10:53:52;;;;;;;2.40;0.50;;;;;;;23.22;41.38;100706.90;106075;1271;22736;-50
2022/07/24 10:56:27;;;;;;;2.00;0.40;;;;;;;23.24;41.33;100711.21;106099;1270;25542;-53
2022/07/24 10:59:02;;;;;;;2.00;0.30;;;;;;;23.31;41.46;100707.45;106151;1269;25377;-53
2022/07/24 11:01:42;;;;;;;3.70;0.40;;;;;;;23.44;41.47;100711.15;106027;1271;22561;-54
2022/07/24 11:04:30;;;;;;;3.40;0.30;;;;;;;23.51;40.31;100714.27;106044;1271;25184;-53
2022/07/24 11:07:11;;;;;;;4.20;0.30;;;;;;;23.53;40.05;100707.38;106077;1270;25318;-51
2022/07/24 11:10:00;;;;;;;3.10;0.30;;;;;;;23.55;40.33;100703.73;106209;1271;22540;-51
2022/07/24 11:12:34;;;;;;;2.30;0.30;;;;;;;23.55;40.08;100705.26;106084;1270;24215;-52
2022/07/24 11:18:13;;;;;;;1.60;0.30;;;;;;;23.50;40.06;100703.41;105933;1271;24894;-53
2022/07/24 11:20:48;;;;;;;4.70;0.30;;;;;;;23.48;40.42;100693.15;106157;1270;22625;-50
2022/07/24 11:23:23;;;;;;;1.80;0.30;;;;;;;23.53;40.53;100688.83;106084;1271;22548;-50
2022/07/24 11:26:32;;;;;;;2.30;0.30;;;;;;;23.57;40.15;100689.13;106010;1270;22554;-52
2022/07/24 11:29:18;;;;;;;2.40;0.40;;;;;;;23.59;39.90;100685.77;106000;1271;22550;-54
2022/07/24 11:31:54;;;;;;;1.70;0.30;;;;;;;23.55;39.11;100679.52;106103;1270;24371;-53
2022/07/24 11:34:27;;;;;;;5.60;0.40;;;;;;;23.59;39.25;100684.52;106026;1270;23087;-48
2022/07/24 11:37:00;;;;;;;2.00;0.20;;;;;;;23.65;39.22;100676.80;106126;1270;25494;-54
2022/07/24 11:39:34;;;;;;;0.80;0.30;;;;;;;23.69;39.34;100674.53;106012;1270;25418;-50
2022/07/24 11:42:08;;;;;;;1.70;0.50;;;;;;;23.73;39.11;100675.16;106109;1270;23953;-52
2022/07/24 11:44:42;;;;;;;1.70;0.30;;;;;;;23.74;38.04;100673.42;106262;1271;22703;-51